sensor_id;sensor_type;location;lat;lon;timestamp;pressure;altitude;pressure_sealevel;temperature;humidity
27643;BME280;15053;48.618;10.024;2023-06-05T00:00:56;94374.03;;;16.02;52.12
27643;BME280;15053;48.618;10.024;2023-06-05T00:03:23;94366.94;;;16.03;52.07
27643;BME280;15053;48.618;10.024;2023-06-05T00:05:51;94367.88;;;16.07;51.80
27643;BME280;15053;48.618;10.024;2023-06-05T00:08:17;94374.44;;;16.13;51.34
27643;BME280;15053;48.618;10.024;2023-06-05T00:10:44;94373.03;;;16.15;50.76
27643;BME280;15053;48.618;10.024;2023-06-05T00:13:11;94371.78;;;16.21;50.07
27643;BME280;15053;48.618;10.024;2023-06-05T00:15:37;94373.31;;;16.22;50.33
27643;BME280;15053;48.618;10.024;2023-06-05T00:18:04;94367.00;;;16.23;50.06
27643;BME280;15053;48.618;10.024;2023-06-05T00:20:30;94362.19;;;16.25;49.48
27643;BME280;15053;48.618;10.024;2023-06-05T00:22:57;94363.69;;;16.26;49.67
27643;BME280;15053;48.618;10.024;2023-06-05T00:25:24;94360.31;;;16.26;49.85
27643;BME280;15053;48.618;10.024;2023-06-05T00:27:50;94362.03;;;16.22;50.10
27643;BME280;15053;48.618;10.024;2023-06-05T00:30:18;94365.16;;;16.15;50.15
27643;BME280;15053;48.618;10.024;2023-06-05T00:32:44;94362.66;;;15.98;50.41
27643;BME280;15053;48.618;10.024;2023-06-05T00:35:11;94364.53;;;15.89;50.81
27643;BME280;15053;48.618;10.024;2023-06-05T00:37:38;94362.28;;;15.79;51.11
27643;BME280;15053;48.618;10.024;2023-06-05T00:40:06;94368.34;;;15.71;52.09
27643;BME280;15053;48.618;10.024;2023-06-05T00:42:32;94361.91;;;15.60;52.50
27643;BME280;15053;48.618;10.024;2023-06-05T00:44:59;94366.53;;;15.54;52.70
27643;BME280;15053;48.618;10.024;2023-06-05T00:47:26;94362.38;;;15.45;53.22
27643;BME280;15053;48.618;10.024;2023-06-05T00:49:53;94362.72;;;15.34;53.91
27643;BME280;15053;48.618;10.024;2023-06-05T00:52:20;94370.91;;;15.24;54.23
27643;BME280;15053;48.618;10.024;2023-06-05T00:54:48;94372.78;;;15.15;55.05
27643;BME280;15053;48.618;10.024;2023-06-05T00:57:15;94374.66;;;15.06;55.23
27643;BME280;15053;48.618;10.024;2023-06-05T00:59:41;94369.13;;;14.99;55.87
27643;BME280;15053;48.618;10.024;2023-06-05T01:02:14;94373.75;;;14.94;55.99
27643;BME280;15053;48.618;10.024;2023-06-05T01:04:40;94373.16;;;14.88;56.60
27643;BME280;15053;48.618;10.024;2023-06-05T01:07:10;94376.69;;;14.84;56.71
27643;BME280;15053;48.618;10.024;2023-06-05T01:09:37;94374.38;;;14.82;57.08
27643;BME280;15053;48.618;10.024;2023-06-05T01:12:26;94370.69;;;14.83;57.52
27643;BME280;15053;48.618;10.024;2023-06-05T01:14:56;94366.81;;;14.81;57.25
27643;BME280;15053;48.618;10.024;2023-06-05T01:17:27;94369.75;;;14.79;57.38
27643;BME280;15053;48.618;10.024;2023-06-05T01:19:55;94367.59;;;14.81;57.09
27643;BME280;15053;48.618;10.024;2023-06-05T01:22:27;94359.72;;;14.81;57.00
27643;BME280;15053;48.618;10.024;2023-06-05T01:24:54;94361.56;;;14.81;57.30
27643;BME280;15053;48.618;10.024;2023-06-05T01:33:19;94362.94;;;14.78;56.18
27643;BME280;15053;48.618;10.024;2023-06-05T01:35:51;94360.31;;;14.78;56.46
27643;BME280;15053;48.618;10.024;2023-06-05T01:38:20;94365.91;;;14.76;56.66
27643;BME280;15053;48.618;10.024;2023-06-05T01:40:50;94358.31;;;14.75;56.02
27643;BME280;15053;48.618;10.024;2023-06-05T01:43:18;94352.50;;;14.69;56.43
27643;BME280;15053;48.618;10.024;2023-06-05T01:45:45;94355.13;;;14.69;56.86
27643;BME280;15053;48.618;10.024;2023-06-05T01:48:12;94351.22;;;14.67;56.76
27643;BME280;15053;48.618;10.024;2023-06-05T01:50:40;94351.88;;;14.64;57.04
27643;BME280;15053;48.618;10.024;2023-06-05T01:53:09;94348.31;;;14.60;56.98
27643;BME280;15053;48.618;10.024;2023-06-05T01:55:38;94346.94;;;14.62;57.15
27643;BME280;15053;48.618;10.024;2023-06-05T01:58:07;94347.25;;;14.61;56.50
27643;BME280;15053;48.618;10.024;2023-06-05T02:00:34;94353.25;;;14.61;56.21
27643;BME280;15053;48.618;10.024;2023-06-05T02:03:03;94350.31;;;14.63;56.57
27643;BME280;15053;48.618;10.024;2023-06-05T02:05:30;94351.22;;;14.67;55.76
27643;BME280;15053;48.618;10.024;2023-06-05T02:07:56;94345.38;;;14.70;56.06
27643;BME280;15053;48.618;10.024;2023-06-05T02:10:24;94340.13;;;14.70;55.99
27643;BME280;15053;48.618;10.024;2023-06-05T02:12:51;94344.31;;;14.71;55.48
27643;BME280;15053;48.618;10.024;2023-06-05T02:15:18;94343.25;;;14.72;55.67
27643;BME280;15053;48.618;10.024;2023-06-05T02:17:45;94345.53;;;14.73;54.92
27643;BME280;15053;48.618;10.024;2023-06-05T02:20:18;94343.69;;;14.74;55.08
27643;BME280;15053;48.618;10.024;2023-06-05T02:22:44;94336.91;;;14.73;55.25
27643;BME280;15053;48.618;10.024;2023-06-05T02:25:11;94345.84;;;14.72;54.49
27643;BME280;15053;48.618;10.024;2023-06-05T02:27:39;94341.69;;;14.71;54.71
27643;BME280;15053;48.618;10.024;2023-06-05T02:30:06;94336.28;;;14.67;54.68
27643;BME280;15053;48.618;10.024;2023-06-05T02:32:34;94345.84;;;14.72;54.05
27643;BME280;15053;48.618;10.024;2023-06-05T02:35:03;94337.66;;;14.73;54.12
27643;BME280;15053;48.618;10.024;2023-06-05T02:37:31;94335.03;;;14.73;53.86
27643;BME280;15053;48.618;10.024;2023-06-05T02:40:04;94330.13;;;14.63;54.15
27643;BME280;15053;48.618;10.024;2023-06-05T02:42:32;94339.06;;;14.71;54.25
27643;BME280;15053;48.618;10.024;2023-06-05T02:44:58;94335.50;;;14.67;53.92
27643;BME280;15053;48.618;10.024;2023-06-05T02:47:25;94333.81;;;14.62;54.23
27643;BME280;15053;48.618;10.024;2023-06-05T02:49:51;94342.63;;;14.58;54.51
27643;BME280;15053;48.618;10.024;2023-06-05T02:52:18;94336.44;;;14.54;54.64
27643;BME280;15053;48.618;10.024;2023-06-05T02:54:45;94335.69;;;14.45;54.30
27643;BME280;15053;48.618;10.024;2023-06-05T02:57:11;94339.06;;;14.37;55.26
27643;BME280;15053;48.618;10.024;2023-06-05T02:59:38;94337.38;;;14.32;55.73
27643;BME280;15053;48.618;10.024;2023-06-05T03:02:09;94337.78;;;14.26;55.83
27643;BME280;15053;48.618;10.024;2023-06-05T03:04:37;94340.69;;;14.15;56.48
27643;BME280;15053;48.618;10.024;2023-06-05T03:07:07;94338.69;;;14.04;57.12
27643;BME280;15053;48.618;10.024;2023-06-05T03:09:37;94339.59;;;13.91;57.31
27643;BME280;15053;48.618;10.024;2023-06-05T03:12:03;94337.53;;;13.79;58.27
27643;BME280;15053;48.618;10.024;2023-06-05T03:14:31;94330.91;;;13.65;58.24
27643;BME280;15053;48.618;10.024;2023-06-05T03:16:58;94347.03;;;13.58;58.72
27643;BME280;15053;48.618;10.024;2023-06-05T03:19:27;94347.63;;;13.55;58.90
27643;BME280;15053;48.618;10.024;2023-06-05T03:21:57;94345.00;;;13.55;59.13
27643;BME280;15053;48.618;10.024;2023-06-05T03:24:24;94346.56;;;13.56;59.49
27643;BME280;15053;48.618;10.024;2023-06-05T03:26:56;94344.72;;;13.56;59.34
27643;BME280;15053;48.618;10.024;2023-06-05T03:29:22;94346.09;;;13.54;59.67
27643;BME280;15053;48.618;10.024;2023-06-05T03:31:49;94346.38;;;13.52;59.64
27643;BME280;15053;48.618;10.024;2023-06-05T03:34:16;94347.31;;;13.48;60.20
27643;BME280;15053;48.618;10.024;2023-06-05T03:36:43;94344.69;;;13.48;59.76
27643;BME280;15053;48.618;10.024;2023-06-05T03:39:12;94349.16;;;13.47;59.99
27643;BME280;15053;48.618;10.024;2023-06-05T03:41:41;94346.81;;;13.46;59.63
27643;BME280;15053;48.618;10.024;2023-06-05T03:44:07;94348.50;;;13.42;60.08
27643;BME280;15053;48.618;10.024;2023-06-05T03:46:35;94352.19;;;13.41;60.06
27643;BME280;15053;48.618;10.024;2023-06-05T03:49:02;94353.88;;;13.37;60.33
27643;BME280;15053;48.618;10.024;2023-06-05T03:51:36;94354.47;;;13.34;60.77
27643;BME280;15053;48.618;10.024;2023-06-05T03:54:03;94354.00;;;13.32;60.73
27643;BME280;15053;48.618;10.024;2023-06-05T03:56:30;94348.78;;;13.32;60.75
27643;BME280;15053;48.618;10.024;2023-06-05T03:59:08;94344.28;;;13.32;60.89
27643;BME280;15053;48.618;10.024;2023-06-05T04:01:38;94354.16;;;13.35;60.95
27643;BME280;15053;48.618;10.024;2023-06-05T04:04:05;94352.78;;;13.38;60.54
27643;BME280;15053;48.618;10.024;2023-06-05T04:06:32;94355.41;;;13.38;61.42
27643;BME280;15053;48.618;10.024;2023-06-05T04:08:59;94355.13;;;13.39;61.32
27643;BME280;15053;48.618;10.024;2023-06-05T04:11:26;94361.00;;;13.45;61.16
27643;BME280;15053;48.618;10.024;2023-06-05T04:13:56;94358.88;;;13.55;61.32
27643;BME280;15053;48.618;10.024;2023-06-05T04:16:23;94360.94;;;13.67;61.41
27643;BME280;15053;48.618;10.024;2023-06-05T04:18:50;94359.44;;;13.83;61.90
27643;BME280;15053;48.618;10.024;2023-06-05T04:21:17;94361.00;;;14.01;61.82
27643;BME280;15053;48.618;10.024;2023-06-05T04:23:43;94361.81;;;14.19;61.47
27643;BME280;15053;48.618;10.024;2023-06-05T04:26:10;94361.88;;;14.36;60.52
27643;BME280;15053;48.618;10.024;2023-06-05T04:28:37;94363.09;;;14.56;60.40
27643;BME280;15053;48.618;10.024;2023-06-05T04:31:04;94360.50;;;14.73;59.39
27643;BME280;15053;48.618;10.024;2023-06-05T04:33:32;94357.41;;;14.88;59.11
27643;BME280;15053;48.618;10.024;2023-06-05T04:35:59;94357.34;;;15.05;59.05
27643;BME280;15053;48.618;10.024;2023-06-05T04:38:27;94353.81;;;15.18;58.51
27643;BME280;15053;48.618;10.024;2023-06-05T04:40:54;94353.13;;;15.30;58.85
27643;BME280;15053;48.618;10.024;2023-06-05T04:43:20;94350.97;;;15.41;58.85
27643;BME280;15053;48.618;10.024;2023-06-05T04:45:49;94348.78;;;15.51;58.25
27643;BME280;15053;48.618;10.024;2023-06-05T04:48:17;94354.03;;;15.60;58.31
27643;BME280;15053;48.618;10.024;2023-06-05T04:50:43;94355.06;;;15.67;58.86
27643;BME280;15053;48.618;10.024;2023-06-05T04:53:11;94353.19;;;15.76;58.95
27643;BME280;15053;48.618;10.024;2023-06-05T04:55:39;94348.00;;;15.88;58.87
27643;BME280;15053;48.618;10.024;2023-06-05T04:58:06;94348.41;;;15.99;58.76
27643;BME280;15053;48.618;10.024;2023-06-05T05:00:32;94347.72;;;16.11;58.74
27643;BME280;15053;48.618;10.024;2023-06-05T05:03:02;94348.91;;;16.22;58.54
27643;BME280;15053;48.618;10.024;2023-06-05T05:05:31;94349.94;;;16.29;58.55
27643;BME280;15053;48.618;10.024;2023-06-05T05:07:58;94343.97;;;16.41;58.36
27643;BME280;15053;48.618;10.024;2023-06-05T05:10:29;94355.66;;;16.52;58.17
27643;BME280;15053;48.618;10.024;2023-06-05T05:12:56;94342.47;;;16.61;58.52
27643;BME280;15053;48.618;10.024;2023-06-05T05:15:23;94347.97;;;16.68;58.25
27643;BME280;15053;48.618;10.024;2023-06-05T05:17:50;94341.88;;;16.76;58.19
27643;BME280;15053;48.618;10.024;2023-06-05T05:20:18;94341.03;;;16.84;58.02
27643;BME280;15053;48.618;10.024;2023-06-05T05:22:46;94346.97;;;16.93;57.81
27643;BME280;15053;48.618;10.024;2023-06-05T05:25:13;94341.66;;;17.01;57.53
27643;BME280;15053;48.618;10.024;2023-06-05T05:27:40;94342.34;;;17.10;57.61
27643;BME280;15053;48.618;10.024;2023-06-05T05:30:07;94347.69;;;17.14;57.52
27643;BME280;15053;48.618;10.024;2023-06-05T05:32:34;94347.63;;;17.23;57.57
27643;BME280;15053;48.618;10.024;2023-06-05T05:35:01;94346.66;;;17.27;57.81
27643;BME280;15053;48.618;10.024;2023-06-05T05:37:30;94345.53;;;17.28;57.62
27643;BME280;15053;48.618;10.024;2023-06-05T05:39:56;94346.88;;;17.34;57.64
27643;BME280;15053;48.618;10.024;2023-06-05T05:42:23;94353.16;;;17.42;57.52
27643;BME280;15053;48.618;10.024;2023-06-05T05:44:49;94351.19;;;17.51;57.46
27643;BME280;15053;48.618;10.024;2023-06-05T05:47:16;94358.25;;;17.59;57.58
27643;BME280;15053;48.618;10.024;2023-06-05T05:49:42;94352.47;;;17.65;57.70
27643;BME280;15053;48.618;10.024;2023-06-05T05:52:09;94350.38;;;17.71;57.60
27643;BME280;15053;48.618;10.024;2023-06-05T05:54:35;94357.28;;;17.76;57.72
27643;BME280;15053;48.618;10.024;2023-06-05T05:57:02;94363.66;;;17.87;57.87
27643;BME280;15053;48.618;10.024;2023-06-05T05:59:30;94360.16;;;17.95;57.79
27643;BME280;15053;48.618;10.024;2023-06-05T06:01:57;94361.47;;;18.01;57.95
27643;BME280;15053;48.618;10.024;2023-06-05T06:04:25;94361.69;;;18.08;57.86
27643;BME280;15053;48.618;10.024;2023-06-05T06:06:52;94369.16;;;18.18;58.07
27643;BME280;15053;48.618;10.024;2023-06-05T06:09:22;94375.06;;;18.27;57.82
27643;BME280;15053;48.618;10.024;2023-06-05T06:11:49;94371.53;;;18.35;57.84
27643;BME280;15053;48.618;10.024;2023-06-05T06:14:15;94375.91;;;18.43;57.85
27643;BME280;15053;48.618;10.024;2023-06-05T06:16:42;94368.47;;;18.45;57.92
27643;BME280;15053;48.618;10.024;2023-06-05T06:19:10;94368.25;;;18.50;57.92
27643;BME280;15053;48.618;10.024;2023-06-05T06:21:40;94373.06;;;18.60;58.11
27643;BME280;15053;48.618;10.024;2023-06-05T06:24:07;94367.78;;;18.60;58.13
27643;BME280;15053;48.618;10.024;2023-06-05T06:26:34;94369.47;;;18.53;58.51
27643;BME280;15053;48.618;10.024;2023-06-05T06:29:03;94378.56;;;18.43;59.00
27643;BME280;15053;48.618;10.024;2023-06-05T06:31:29;94374.16;;;18.47;58.95
27643;BME280;15053;48.618;10.024;2023-06-05T06:33:56;94374.91;;;18.60;58.83
27643;BME280;15053;48.618;10.024;2023-06-05T06:36:22;94374.38;;;18.66;59.07
27643;BME280;15053;48.618;10.024;2023-06-05T06:38:49;94380.84;;;18.69;59.20
27643;BME280;15053;48.618;10.024;2023-06-05T06:41:16;94371.50;;;18.71;59.34
27643;BME280;15053;48.618;10.024;2023-06-05T06:43:42;94380.28;;;18.75;59.17
27643;BME280;15053;48.618;10.024;2023-06-05T06:46:10;94369.72;;;18.75;59.44
27643;BME280;15053;48.618;10.024;2023-06-05T06:48:36;94371.25;;;18.76;59.33
27643;BME280;15053;48.618;10.024;2023-06-05T06:51:03;94376.63;;;18.80;59.20
27643;BME280;15053;48.618;10.024;2023-06-05T06:53:30;94383.88;;;18.83;59.23
27643;BME280;15053;48.618;10.024;2023-06-05T06:55:56;94376.81;;;18.87;59.19
27643;BME280;15053;48.618;10.024;2023-06-05T06:58:23;94380.44;;;18.95;59.36
27643;BME280;15053;48.618;10.024;2023-06-05T07:00:50;94378.66;;;18.99;59.15
27643;BME280;15053;48.618;10.024;2023-06-05T07:03:17;94385.59;;;19.03;59.23
27643;BME280;15053;48.618;10.024;2023-06-05T07:05:44;94376.47;;;19.01;58.78
27643;BME280;15053;48.618;10.024;2023-06-05T07:08:10;94386.34;;;19.04;58.96
27643;BME280;15053;48.618;10.024;2023-06-05T07:10:37;94378.63;;;19.11;59.17
27643;BME280;15053;48.618;10.024;2023-06-05T07:13:03;94386.06;;;19.21;59.07
27643;BME280;15053;48.618;10.024;2023-06-05T07:15:30;94376.22;;;19.33;59.37
27643;BME280;15053;48.618;10.024;2023-06-05T07:17:56;94372.69;;;19.57;58.79
27643;BME280;15053;48.618;10.024;2023-06-05T07:20:23;94383.00;;;19.62;58.90
27643;BME280;15053;48.618;10.024;2023-06-05T07:22:49;94376.88;;;19.74;58.70
27643;BME280;15053;48.618;10.024;2023-06-05T07:25:16;94379.16;;;19.75;58.58
27643;BME280;15053;48.618;10.024;2023-06-05T07:27:44;94380.81;;;19.80;58.26
27643;BME280;15053;48.618;10.024;2023-06-05T07:30:11;94375.53;;;19.80;58.09
27643;BME280;15053;48.618;10.024;2023-06-05T07:32:41;94372.53;;;19.81;58.16
27643;BME280;15053;48.618;10.024;2023-06-05T07:35:09;94367.22;;;19.81;58.03
27643;BME280;15053;48.618;10.024;2023-06-05T07:37:36;94371.00;;;19.80;57.72
27643;BME280;15053;48.618;10.024;2023-06-05T07:40:02;94375.16;;;19.81;57.76
27643;BME280;15053;48.618;10.024;2023-06-05T07:42:29;94367.41;;;19.88;57.77
27643;BME280;15053;48.618;10.024;2023-06-05T07:44:56;94369.13;;;19.96;57.46
27643;BME280;15053;48.618;10.024;2023-06-05T07:47:22;94365.53;;;20.05;57.13
27643;BME280;15053;48.618;10.024;2023-06-05T07:50:03;94369.69;;;20.06;56.96
27643;BME280;15053;48.618;10.024;2023-06-05T07:52:33;94363.72;;;20.09;57.01
27643;BME280;15053;48.618;10.024;2023-06-05T07:54:59;94366.53;;;20.16;56.22
27643;BME280;15053;48.618;10.024;2023-06-05T07:57:26;94372.25;;;20.18;56.20
27643;BME280;15053;48.618;10.024;2023-06-05T07:59:56;94374.22;;;20.21;56.18
27643;BME280;15053;48.618;10.024;2023-06-05T08:02:22;94371.75;;;20.28;56.22
27643;BME280;15053;48.618;10.024;2023-06-05T08:04:50;94363.69;;;20.40;56.15
27643;BME280;15053;48.618;10.024;2023-06-05T08:07:17;94355.50;;;20.64;55.57
27643;BME280;15053;48.618;10.024;2023-06-05T08:09:43;94363.75;;;20.97;55.59
27643;BME280;15053;48.618;10.024;2023-06-05T08:12:10;94357.41;;;21.21;54.93
27643;BME280;15053;48.618;10.024;2023-06-05T08:14:37;94360.63;;;21.30;54.47
27643;BME280;15053;48.618;10.024;2023-06-05T08:17:04;94358.53;;;21.39;54.43
27643;BME280;15053;48.618;10.024;2023-06-05T08:19:31;94359.34;;;21.66;53.58
27643;BME280;15053;48.618;10.024;2023-06-05T08:21:57;94361.84;;;21.78;52.86
27643;BME280;15053;48.618;10.024;2023-06-05T08:24:24;94353.59;;;21.83;52.33
27643;BME280;15053;48.618;10.024;2023-06-05T08:26:51;94361.38;;;21.95;51.54
27643;BME280;15053;48.618;10.024;2023-06-05T08:29:17;94365.78;;;22.10;50.87
27643;BME280;15053;48.618;10.024;2023-06-05T08:31:44;94359.56;;;22.25;50.02
27643;BME280;15053;48.618;10.024;2023-06-05T08:34:11;94360.84;;;22.35;49.37
27643;BME280;15053;48.618;10.024;2023-06-05T08:36:38;94360.63;;;22.21;48.20
27643;BME280;15053;48.618;10.024;2023-06-05T08:39:04;94361.19;;;22.07;48.15
27643;BME280;15053;48.618;10.024;2023-06-05T08:41:31;94353.75;;;22.16;48.20
27643;BME280;15053;48.618;10.024;2023-06-05T08:43:58;94362.31;;;22.32;47.67
27643;BME280;15053;48.618;10.024;2023-06-05T08:46:28;94358.72;;;22.48;47.28
27643;BME280;15053;48.618;10.024;2023-06-05T08:48:55;94347.41;;;22.51;46.32
27643;BME280;15053;48.618;10.024;2023-06-05T08:51:23;94353.09;;;22.49;46.44
27643;BME280;15053;48.618;10.024;2023-06-05T08:54:03;94363.94;;;22.67;46.37
27643;BME280;15053;48.618;10.024;2023-06-05T08:56:42;94352.66;;;22.73;45.65
27643;BME280;15053;48.618;10.024;2023-06-05T08:59:10;94353.91;;;22.83;45.24
27643;BME280;15053;48.618;10.024;2023-06-05T09:01:41;94347.94;;;22.89;44.95
27643;BME280;15053;48.618;10.024;2023-06-05T09:04:10;94349.94;;;23.00;44.75
27643;BME280;15053;48.618;10.024;2023-06-05T09:06:37;94345.88;;;23.09;44.13
27643;BME280;15053;48.618;10.024;2023-06-05T09:09:07;94347.88;;;23.19;43.17
27643;BME280;15053;48.618;10.024;2023-06-05T09:11:34;94340.78;;;23.30;43.01
27643;BME280;15053;48.618;10.024;2023-06-05T09:14:01;94338.50;;;23.32;42.48
27643;BME280;15053;48.618;10.024;2023-06-05T09:16:37;94347.41;;;23.43;42.12
27643;BME280;15053;48.618;10.024;2023-06-05T09:19:05;94345.50;;;23.44;41.35
27643;BME280;15053;48.618;10.024;2023-06-05T09:21:32;94343.66;;;23.52;41.12
27643;BME280;15053;48.618;10.024;2023-06-05T09:29:27;94334.06;;;24.31;39.17
27643;BME280;15053;48.618;10.024;2023-06-05T09:31:56;94341.47;;;24.55;38.61
27643;BME280;15053;48.618;10.024;2023-06-05T09:34:25;94332.44;;;24.78;38.13
27643;BME280;15053;48.618;10.024;2023-06-05T09:36:52;94328.31;;;24.91;37.14
27643;BME280;15053;48.618;10.024;2023-06-05T09:39:21;94330.56;;;24.89;37.12
27643;BME280;15053;48.618;10.024;2023-06-05T09:41:48;94332.34;;;24.67;37.05
27643;BME280;15053;48.618;10.024;2023-06-05T09:44:19;94336.38;;;24.33;36.15
27643;BME280;15053;48.618;10.024;2023-06-05T09:52:06;94341.00;;;23.48;36.34
27643;BME280;15053;48.618;10.024;2023-06-05T09:54:37;94333.78;;;23.48;36.90
27643;BME280;15053;48.618;10.024;2023-06-05T09:57:05;94332.50;;;23.76;37.15
27643;BME280;15053;48.618;10.024;2023-06-05T09:59:34;94325.59;;;24.12;37.53
27643;BME280;15053;48.618;10.024;2023-06-05T10:02:06;94326.97;;;24.53;35.74
27643;BME280;15053;48.618;10.024;2023-06-05T10:04:38;94324.47;;;24.81;35.03
27643;BME280;15053;48.618;10.024;2023-06-05T10:07:08;94327.59;;;25.08;35.75
27643;BME280;15053;48.618;10.024;2023-06-05T10:09:35;94324.63;;;25.27;35.74
27643;BME280;15053;48.618;10.024;2023-06-05T10:12:04;94317.81;;;25.47;36.38
27643;BME280;15053;48.618;10.024;2023-06-05T10:14:31;94326.25;;;25.70;35.59
27643;BME280;15053;48.618;10.024;2023-06-05T10:16:58;94323.97;;;25.87;33.99
27643;BME280;15053;48.618;10.024;2023-06-05T10:19:25;94323.19;;;25.97;32.67
27643;BME280;15053;48.618;10.024;2023-06-05T10:21:51;94317.06;;;26.10;32.95
27643;BME280;15053;48.618;10.024;2023-06-05T10:24:28;94319.00;;;26.31;32.94
27643;BME280;15053;48.618;10.024;2023-06-05T10:30:14;94323.91;;;26.50;33.15
27643;BME280;15053;48.618;10.024;2023-06-05T10:33:17;94323.13;;;26.60;33.00
27643;BME280;15053;48.618;10.024;2023-06-05T10:35:54;94318.50;;;26.75;32.38
27643;BME280;15053;48.618;10.024;2023-06-05T10:38:27;94314.75;;;26.58;31.92
27643;BME280;15053;48.618;10.024;2023-06-05T10:40:58;94307.81;;;26.68;31.99
27643;BME280;15053;48.618;10.024;2023-06-05T10:43:29;94320.78;;;26.83;31.87
27643;BME280;15053;48.618;10.024;2023-06-05T10:46:00;94316.88;;;27.06;32.36
27643;BME280;15053;48.618;10.024;2023-06-05T10:51:51;94308.09;;;27.02;32.35
27643;BME280;15053;48.618;10.024;2023-06-05T10:59:20;94310.47;;;27.58;31.50
27643;BME280;15053;48.618;10.024;2023-06-05T11:10:07;94310.97;;;25.85;31.73
27643;BME280;15053;48.618;10.024;2023-06-05T11:15:14;94316.22;;;25.25;33.15
27643;BME280;15053;48.618;10.024;2023-06-05T11:17:42;94312.38;;;25.08;34.04
27643;BME280;15053;48.618;10.024;2023-06-05T11:27:48;94303.56;;;24.90;34.49
27643;BME280;15053;48.618;10.024;2023-06-05T11:30:18;94293.34;;;25.17;34.03
27643;BME280;15053;48.618;10.024;2023-06-05T11:32:53;94288.06;;;25.24;33.65
27643;BME280;15053;48.618;10.024;2023-06-05T11:35:28;94293.34;;;25.13;34.22
27643;BME280;15053;48.618;10.024;2023-06-05T11:40:35;94296.34;;;24.98;34.38
27643;BME280;15053;48.618;10.024;2023-06-05T11:43:03;94294.72;;;24.76;34.99
27643;BME280;15053;48.618;10.024;2023-06-05T11:45:32;94288.66;;;24.79;35.77
27643;BME280;15053;48.618;10.024;2023-06-05T11:48:12;94293.69;;;24.98;35.02
27643;BME280;15053;48.618;10.024;2023-06-05T11:50:59;94285.66;;;24.94;34.19
27643;BME280;15053;48.618;10.024;2023-06-05T11:53:28;94289.47;;;24.83;34.23
27643;BME280;15053;48.618;10.024;2023-06-05T11:55:56;94289.41;;;24.72;34.27
27643;BME280;15053;48.618;10.024;2023-06-05T11:58:37;94285.59;;;24.77;34.17
27643;BME280;15053;48.618;10.024;2023-06-05T12:01:18;94290.22;;;24.80;33.58
27643;BME280;15053;48.618;10.024;2023-06-05T12:04:06;94292.81;;;24.69;33.95
27643;BME280;15053;48.618;10.024;2023-06-05T12:06:40;94276.59;;;25.02;33.10
27643;BME280;15053;48.618;10.024;2023-06-05T12:09:11;94279.28;;;25.41;33.81
27643;BME280;15053;48.618;10.024;2023-06-05T12:11:38;94276.28;;;25.78;33.21
27643;BME280;15053;48.618;10.024;2023-06-05T12:14:05;94275.88;;;26.29;32.93
27643;BME280;15053;48.618;10.024;2023-06-05T12:16:34;94267.34;;;26.69;31.85
27643;BME280;15053;48.618;10.024;2023-06-05T12:19:02;94262.34;;;26.82;31.11
27643;BME280;15053;48.618;10.024;2023-06-05T12:21:42;94268.53;;;26.61;30.76
27643;BME280;15053;48.618;10.024;2023-06-05T12:24:08;94267.50;;;26.20;30.80
27643;BME280;15053;48.618;10.024;2023-06-05T12:26:58;94258.38;;;25.82;31.27
27643;BME280;15053;48.618;10.024;2023-06-05T12:29:30;94256.84;;;25.81;32.05
27643;BME280;15053;48.618;10.024;2023-06-05T12:31:59;94257.19;;;26.25;31.51
27643;BME280;15053;48.618;10.024;2023-06-05T12:34:38;94249.00;;;26.82;30.82
27643;BME280;15053;48.618;10.024;2023-06-05T12:37:35;94250.59;;;27.31;31.06
27643;BME280;15053;48.618;10.024;2023-06-05T12:40:05;94241.09;;;27.78;30.18
27643;BME280;15053;48.618;10.024;2023-06-05T12:42:44;94244.28;;;28.10;29.85
27643;BME280;15053;48.618;10.024;2023-06-05T12:45:11;94236.00;;;28.35;28.55
27643;BME280;15053;48.618;10.024;2023-06-05T12:47:39;94242.50;;;28.34;28.61
27643;BME280;15053;48.618;10.024;2023-06-05T12:50:07;94236.25;;;28.44;28.29
27643;BME280;15053;48.618;10.024;2023-06-05T12:52:39;94233.75;;;28.60;27.72
27643;BME280;15053;48.618;10.024;2023-06-05T12:55:06;94228.25;;;28.74;27.78
27643;BME280;15053;48.618;10.024;2023-06-05T12:57:33;94233.06;;;28.56;27.96
27643;BME280;15053;48.618;10.024;2023-06-05T13:00:04;94219.22;;;28.61;28.50
27643;BME280;15053;48.618;10.024;2023-06-05T13:02:42;94227.00;;;28.82;28.45
27643;BME280;15053;48.618;10.024;2023-06-05T13:05:13;94223.22;;;28.80;28.22
27643;BME280;15053;48.618;10.024;2023-06-05T13:07:40;94223.38;;;28.65;27.44
27643;BME280;15053;48.618;10.024;2023-06-05T13:10:08;94227.88;;;28.42;28.32
27643;BME280;15053;48.618;10.024;2023-06-05T13:12:37;94220.22;;;28.74;27.96
27643;BME280;15053;48.618;10.024;2023-06-05T13:15:04;94216.81;;;29.00;27.56
27643;BME280;15053;48.618;10.024;2023-06-05T13:17:33;94217.66;;;29.20;26.27
27643;BME280;15053;48.618;10.024;2023-06-05T13:20:02;94222.69;;;29.45;27.01
27643;BME280;15053;48.618;10.024;2023-06-05T13:22:39;94209.38;;;29.61;26.41
27643;BME280;15053;48.618;10.024;2023-06-05T13:25:06;94214.59;;;29.72;26.35
27643;BME280;15053;48.618;10.024;2023-06-05T13:27:34;94210.84;;;29.66;26.76
27643;BME280;15053;48.618;10.024;2023-06-05T13:30:01;94208.53;;;29.91;26.69
27643;BME280;15053;48.618;10.024;2023-06-05T13:32:29;94205.13;;;30.10;26.54
27643;BME280;15053;48.618;10.024;2023-06-05T13:34:56;94208.97;;;29.63;26.09
27643;BME280;15053;48.618;10.024;2023-06-05T13:37:23;94211.88;;;28.95;26.16
27643;BME280;15053;48.618;10.024;2023-06-05T13:39:50;94208.16;;;28.89;27.44
27643;BME280;15053;48.618;10.024;2023-06-05T13:42:16;94209.59;;;29.20;26.80
27643;BME280;15053;48.618;10.024;2023-06-05T13:44:44;94207.75;;;29.44;26.43
27643;BME280;15053;48.618;10.024;2023-06-05T13:47:11;94204.59;;;29.72;26.47